Time;durP1;ratioP1;P1;durP2;ratioP2;P2;SDS_P1;SDS_P2;PMS_P1;PMS_P2;Temp;Humidity;BMP_temperature;BMP_pressure;BME280_temperature;BME280_humidity;BME280_pressure;Samples;Min_cycle;Max_cycle;Signal;HPM_P1;HPM_P2
2022/01/11 00:02:20;;;;;;;;;;;-0.20;99.90;;;;;;6145030;23;19916;-92
2022/01/11 00:04:49;;;;;;;;;;;-0.20;99.90;;;;;;6136437;23;19947;-92
2022/01/11 00:07:24;;;;;;;;;;;-0.20;99.90;;;;;;6148371;23;19908;-93
2022/01/11 00:09:51;;;;;;;;;;;-0.20;99.90;;;;;;6143680;23;19944;-91
2022/01/11 00:12:26;;;;;;;;;;;-0.30;99.90;;;;;;6150344;23;20031;-93
2022/01/11 00:15:12;;;;;;;;;;;-0.30;99.90;;;;;;6109788;23;19940;-93
2022/01/11 00:18:01;;;;;;;;;;;-0.30;99.90;;;;;;6101245;23;20097;-93
2022/01/11 00:20:37;;;;;;;;;;;-0.40;99.90;;;;;;6109966;23;19985;-93
2022/01/11 00:25:59;;;;;;;;;;;-0.40;99.90;;;;;;6106265;23;19967;-92
2022/01/11 00:28:33;;;;;;;;;;;-0.50;99.90;;;;;;6106356;23;19916;-92
2022/01/11 00:31:05;;;;;;;;;;;-0.50;99.90;;;;;;6106727;23;19908;-92
2022/01/11 00:33:40;;;;;;;;;;;-0.50;99.90;;;;;;6091223;23;20353;-93
2022/01/11 00:36:40;;;;;;;;;;;-0.50;99.90;;;;;;6065918;23;19913;-92
2022/01/11 00:39:14;;;;;;;;;;;-0.50;99.90;;;;;;6091730;23;19916;-92
2022/01/11 00:41:43;;;;;;;;;;;-0.70;99.90;;;;;;6074126;23;19909;-91
2022/01/11 00:47:46;;;;;;;;;;;-0.60;99.90;;;;;;6096419;23;20457;-92
2022/01/11 00:50:12;;;;;;;;;;;-0.60;99.90;;;;;;6055683;23;19913;-92
2022/01/11 00:52:47;;;;;;;;;;;-0.80;99.90;;;;;;6095011;23;19996;-92
2022/01/11 00:55:39;;;;;;;;;;;-0.80;99.90;;;;;;6116187;23;20165;-94
2022/01/11 00:58:05;;;;;;;;;;;-0.80;99.90;;;;;;6116168;23;19912;-92
2022/01/11 01:00:41;;;;;;;;;;;-0.70;99.90;;;;;;6101734;23;20300;-93
2022/01/11 01:03:12;;;;;;;;;;;-0.80;99.90;;;;;;6119165;23;19915;-93
2022/01/11 01:05:46;;;;;;;;;;;-0.90;99.90;;;;;;6084687;23;20505;-93
2022/01/11 01:08:33;;;;;;;;;;;;;;;;;;;;;
2022/01/11 01:11:19;;;;;;;;;;;-0.80;99.90;;;;;;6126640;23;21578;-92
2022/01/11 01:13:48;;;;;;;;;;;-0.90;99.90;;;;;;6077149;23;21263;-92
2022/01/11 01:16:14;;;;;;;;;;;-1.00;99.90;;;;;;6116413;23;19909;-92
2022/01/11 01:18:42;;;;;;;;;;;-1.00;99.90;;;;;;6131764;23;20168;-91
2022/01/11 01:21:24;;;;;;;;;;;-1.00;99.90;;;;;;6132439;23;19979;-91
2022/01/11 01:23:49;;;;;;;;;;;-0.90;99.90;;;;;;6138370;23;19912;-93
2022/01/11 01:26:17;;;;;;;;;;;-0.90;99.90;;;;;;6144339;23;19939;-91
2022/01/11 01:28:43;;;;;;;;;;;-0.90;99.90;;;;;;6149471;23;19944;-91
2022/01/11 01:31:11;;;;;;;;;;;-1.10;99.90;;;;;;6147195;23;19909;-92
2022/01/11 01:33:36;;;;;;;;;;;-1.20;99.90;;;;;;6173854;23;19919;-93
2022/01/11 01:36:11;;;;;;;;;;;-1.20;99.90;;;;;;6133334;23;19916;-93
2022/01/11 01:38:37;;;;;;;;;;;-1.10;99.90;;;;;;6116779;23;19912;-93
2022/01/11 01:41:15;;;;;;;;;;;-1.10;99.90;;;;;;6125665;23;19916;-93
2022/01/11 01:43:42;;;;;;;;;;;-1.20;99.90;;;;;;6147327;23;19934;-90
2022/01/11 01:46:11;;;;;;;;;;;-1.30;99.90;;;;;;6108406;23;19995;-92
2022/01/11 01:48:45;;;;;;;;;;;-1.30;99.90;;;;;;6115462;23;19915;-93
2022/01/11 01:51:14;;;;;;;;;;;-1.30;99.90;;;;;;6108219;23;20284;-94
2022/01/11 01:53:45;;;;;;;;;;;-1.40;99.90;;;;;;6109025;23;19920;-92
2022/01/11 01:56:14;;;;;;;;;;;-1.30;99.90;;;;;;6093627;23;19979;-94
2022/01/11 01:58:42;;;;;;;;;;;-1.40;99.90;;;;;;6103211;23;19924;-89
2022/01/11 02:01:13;;;;;;;;;;;-1.30;99.90;;;;;;6125615;23;20331;-92
2022/01/11 02:03:47;;;;;;;;;;;-1.40;99.90;;;;;;6133013;23;19923;-91
2022/01/11 02:09:37;;;;;;;;;;;-1.30;99.90;;;;;;6139670;23;20348;-92
2022/01/11 02:12:03;;;;;;;;;;;-1.30;99.90;;;;;;6133900;23;19935;-94
2022/01/11 02:14:31;;;;;;;;;;;-1.30;99.90;;;;;;6108454;23;19991;-94
2022/01/11 02:17:00;;;;;;;;;;;-1.20;99.90;;;;;;6074579;23;19912;-93
2022/01/11 02:20:20;;;;;;;;;;;;;;;;;;;;;
2022/01/11 02:22:53;;;;;;;;;;;-1.30;99.90;;;;;;6037162;23;21232;-91
2022/01/11 02:25:30;;;;;;;;;;;-1.30;99.90;;;;;;6118779;23;19916;-93
2022/01/11 02:28:36;;;;;;;;;;;-1.30;99.90;;;;;;6134239;23;19936;-89
2022/01/11 02:31:07;;;;;;;;;;;-1.20;99.90;;;;;;6137206;23;19938;-92
2022/01/11 02:33:33;;;;;;;;;;;-1.30;99.90;;;;;;6142991;23;19920;-93
2022/01/11 02:36:01;;;;;;;;;;;-1.30;99.90;;;;;;6128925;23;19912;-92
2022/01/11 02:38:34;;;;;;;;;;;-1.30;99.90;;;;;;6133838;23;20681;-92
2022/01/11 02:41:00;;;;;;;;;;;-1.40;99.90;;;;;;6130402;23;19991;-93
2022/01/11 02:43:26;;;;;;;;;;;-1.60;99.90;;;;;;6145083;23;19936;-93
2022/01/11 02:46:01;;;;;;;;;;;-1.70;99.90;;;;;;6143647;23;19912;-91
2022/01/11 02:48:27;;;;;;;;;;;-1.70;99.90;;;;;;6131739;23;19943;-93
2022/01/11 02:50:59;;;;;;;;;;;-1.70;99.90;;;;;;6117483;23;19918;-94
2022/01/11 02:53:25;;;;;;;;;;;-1.70;99.90;;;;;;6082296;23;19920;-94
2022/01/11 02:55:53;;;;;;;;;;;-1.60;99.90;;;;;;6056613;23;19919;-94
2022/01/11 02:58:27;;;;;;;;;;;-1.60;99.90;;;;;;6104172;23;20392;-95
2022/01/11 03:01:32;;;;;;;;;;;;;;;;;;;;;
2022/01/11 03:04:03;;;;;;;;;;;-1.60;99.90;;;;;;6076571;23;20003;-91
2022/01/11 03:06:31;;;;;;;;;;;-1.50;99.90;;;;;;6068403;23;19916;-92
2022/01/11 03:12:44;;;;;;;;;;;-1.50;99.90;;;;;;5991544;23;20186;-93
2022/01/11 03:15:11;;;;;;;;;;;-1.30;99.90;;;;;;6116688;23;19927;-93
2022/01/11 03:17:37;;;;;;;;;;;-1.40;99.90;;;;;;6087227;23;20349;-93
2022/01/11 03:20:09;;;;;;;;;;;-1.40;99.90;;;;;;6092551;23;20337;-90
2022/01/11 03:22:35;;;;;;;;;;;-1.40;99.90;;;;;;6119078;23;20433;-89
2022/01/11 03:25:05;;;;;;;;;;;-1.40;99.90;;;;;;6101874;23;19920;-92
2022/01/11 03:27:39;;;;;;;;;;;-1.40;99.90;;;;;;6074975;23;19913;-92
2022/01/11 03:33:46;;;;;;;;;;;-1.50;99.90;;;;;;5946883;23;20001;-92
2022/01/11 03:42:39;;;;;;;;;;;-1.50;99.90;;;;;;5990088;23;19913;-92
2022/01/11 03:45:08;;;;;;;;;;;-1.60;99.90;;;;;;6003863;23;19914;-91
2022/01/11 03:47:37;;;;;;;;;;;-1.60;99.90;;;;;;6034333;23;20263;-94
2022/01/11 03:50:21;;;;;;;;;;;-1.60;99.90;;;;;;6015158;23;20227;-92
2022/01/11 03:52:58;;;;;;;;;;;-1.60;99.90;;;;;;5993253;23;20496;-91
2022/01/11 03:58:15;;;;;;;;;;;-1.80;99.90;;;;;;6049857;23;20000;-92
2022/01/11 04:00:49;;;;;;;;;;;-1.80;99.90;;;;;;5995254;23;19994;-93
2022/01/11 04:03:26;;;;;;;;;;;-1.80;99.90;;;;;;6009050;23;20458;-93
2022/01/11 04:05:54;;;;;;;;;;;-1.60;99.90;;;;;;5991667;23;19917;-94
2022/01/11 04:08:22;;;;;;;;;;;-1.60;99.90;;;;;;6071231;23;19912;-95
2022/01/11 04:10:56;;;;;;;;;;;-1.60;99.90;;;;;;6101457;23;19912;-94
2022/01/11 04:13:31;;;;;;;;;;;-1.50;99.90;;;;;;6083078;23;19920;-93
2022/01/11 04:15:57;;;;;;;;;;;-1.50;99.90;;;;;;6078245;23;19924;-94
2022/01/11 04:18:26;;;;;;;;;;;-1.50;99.90;;;;;;6112741;23;19916;-93
2022/01/11 04:20:54;;;;;;;;;;;-1.50;99.90;;;;;;6072854;23;19912;-93
2022/01/11 04:23:25;;;;;;;;;;;-1.60;99.90;;;;;;6079255;23;20236;-92
2022/01/11 04:26:11;;;;;;;;;;;-1.70;99.90;;;;;;6091601;23;20399;-92
2022/01/11 04:28:37;;;;;;;;;;;-1.80;99.90;;;;;;6087904;23;19944;-91
2022/01/11 04:31:14;;;;;;;;;;;-1.90;99.90;;;;;;6090843;23;19919;-91
2022/01/11 04:33:45;;;;;;;;;;;-1.90;99.90;;;;;;6117838;23;19940;-91
2022/01/11 04:36:12;;;;;;;;;;;-1.80;99.90;;;;;;6116326;23;19916;-93
2022/01/11 04:38:46;;;;;;;;;;;-1.80;99.90;;;;;;6090608;23;20218;-91
2022/01/11 04:41:19;;;;;;;;;;;-1.70;99.90;;;;;;6071010;23;20286;-91
2022/01/11 04:43:48;;;;;;;;;;;-1.60;99.90;;;;;;6048420;23;19915;-92
2022/01/11 04:46:18;;;;;;;;;;;-1.60;99.90;;;;;;6075467;23;19913;-92
2022/01/11 04:49:07;;;;;;;;;;;-1.60;99.90;;;;;;6058421;23;19913;-90
2022/01/11 05:04:44;;;;;;;;;;;-1.80;99.90;;;;;;6055785;23;19924;-90
2022/01/11 05:07:42;;;;;;;;;;;-1.70;99.90;;;;;;6041980;23;19916;-92
2022/01/11 05:10:27;;;;;;;;;;;-1.60;99.90;;;;;;6103063;23;19916;-92
2022/01/11 05:13:36;;;;;;;;;;;;;;;;;;;;;
2022/01/11 05:16:27;;;;;;;;;;;;;;;;;;;;;
2022/01/11 05:49:16;;;;;;;;;;;-1.60;99.90;;;;;;6183609;23;19928;-90
2022/01/11 05:51:42;;;;;;;;;;;-1.70;99.90;;;;;;6193869;23;19920;-89
2022/01/11 05:57:30;;;;;;;;;;;-1.60;99.90;;;;;;5937139;23;19914;-92
2022/01/11 06:00:30;;;;;;;;;;;-1.70;99.90;;;;;;5977574;23;19914;-93
2022/01/11 06:03:24;;;;;;;;;;;-1.70;99.90;;;;;;5957107;23;20268;-92
2022/01/11 06:06:10;;;;;;;;;;;-1.80;99.90;;;;;;5916414;23;20325;-93
2022/01/11 06:11:42;;;;;;;;;;;-1.80;99.90;;;;;;5968051;23;20322;-92
2022/01/11 06:14:27;;;;;;;;;;;-1.80;99.90;;;;;;5985488;23;19986;-93
2022/01/11 06:17:26;;;;;;;;;;;-1.70;99.90;;;;;;5998861;23;19917;-92
2022/01/11 06:20:18;;;;;;;;;;;-1.70;99.90;;;;;;5975144;23;19941;-93
2022/01/11 06:32:31;;;;;;;;;;;-1.60;99.90;;;;;;5848351;24;20464;-91
2022/01/11 06:35:18;;;;;;;;;;;-1.60;99.90;;;;;;5900747;23;19935;-89
2022/01/11 06:37:53;;;;;;;;;;;-1.60;99.90;;;;;;5939625;23;20406;-91
2022/01/11 06:40:19;;;;;;;;;;;-1.60;99.90;;;;;;6099803;23;19932;-89
2022/01/11 06:42:45;;;;;;;;;;;-1.60;99.90;;;;;;6203064;23;20258;-89
2022/01/11 06:45:11;;;;;;;;;;;-1.40;99.90;;;;;;6203558;23;19950;-89
2022/01/11 06:47:37;;;;;;;;;;;-1.40;99.90;;;;;;6203851;23;19920;-90
2022/01/11 06:50:03;;;;;;;;;;;-1.50;99.90;;;;;;6206949;23;19912;-92
2022/01/11 06:52:31;;;;;;;;;;;-1.40;99.90;;;;;;6206252;23;19916;-93
2022/01/11 06:54:57;;;;;;;;;;;-1.30;99.90;;;;;;6150765;23;20328;-89
2022/01/11 06:57:33;;;;;;;;;;;-1.40;99.90;;;;;;6133310;23;19939;-92
2022/01/11 07:00:04;;;;;;;;;;;-1.40;99.90;;;;;;6141476;23;19911;-90
2022/01/11 07:02:32;;;;;;;;;;;-1.40;99.90;;;;;;6164376;23;19983;-92
2022/01/11 07:05:00;;;;;;;;;;;-1.50;99.90;;;;;;6182712;23;19938;-88
2022/01/11 07:07:26;;;;;;;;;;;-1.60;99.90;;;;;;6173435;23;20243;-92
2022/01/11 07:09:54;;;;;;;;;;;-1.50;99.90;;;;;;6164449;23;19912;-91
2022/01/11 07:12:22;;;;;;;;;;;-1.50;99.90;;;;;;6164984;23;20006;-91
2022/01/11 07:14:48;;;;;;;;;;;-1.50;99.90;;;;;;6193483;23;19912;-90
2022/01/11 07:17:25;;;;;;;;;;;-1.50;99.90;;;;;;6174868;23;19912;-93
2022/01/11 07:20:11;;;;;;;;;;;;;;;;;;;;;
2022/01/11 07:22:42;;;;;;;;;;;-1.50;99.90;;;;;;6046930;23;20354;-92
2022/01/11 07:25:17;;;;;;;;;;;-1.40;99.90;;;;;;6033248;23;20388;-91
2022/01/11 07:27:42;;;;;;;;;;;-1.50;99.90;;;;;;6107154;23;20007;-91
2022/01/11 07:30:42;;;;;;;;;;;-1.40;99.90;;;;;;6142618;23;19986;-90
2022/01/11 07:33:41;;;;;;;;;;;;;;;;;;;;;
2022/01/11 07:36:09;;;;;;;;;;;-1.50;99.90;;;;;;6169160;23;20351;-91
2022/01/11 07:38:50;;;;;;;;;;;;;;;;;;;;;
2022/01/11 07:41:32;;;;;;;;;;;-1.30;99.90;;;;;;6145723;23;20603;-91
2022/01/11 07:43:58;;;;;;;;;;;-1.40;99.90;;;;;;6164105;23;19908;-89
2022/01/11 07:46:24;;;;;;;;;;;-1.30;99.90;;;;;;6199385;23;20281;-90
2022/01/11 07:48:50;;;;;;;;;;;-1.30;99.90;;;;;;6203982;23;19924;-91
2022/01/11 07:51:16;;;;;;;;;;;-1.20;99.90;;;;;;6201682;23;19908;-90
2022/01/11 07:53:44;;;;;;;;;;;-1.20;99.90;;;;;;6205581;23;19908;-89
2022/01/11 07:56:11;;;;;;;;;;;-1.20;99.90;;;;;;6201656;23;20347;-88
2022/01/11 07:58:37;;;;;;;;;;;-1.10;99.90;;;;;;6203375;23;19912;-92
2022/01/11 08:01:03;;;;;;;;;;;-1.20;99.90;;;;;;6203587;23;19927;-89
2022/01/11 08:03:28;;;;;;;;;;;-1.20;99.90;;;;;;6171248;23;19939;-91
2022/01/11 08:05:54;;;;;;;;;;;-1.20;99.90;;;;;;6199099;23;19974;-90
2022/01/11 08:08:19;;;;;;;;;;;-1.30;99.90;;;;;;6187302;23;19912;-91
2022/01/11 08:10:45;;;;;;;;;;;-1.20;99.90;;;;;;6183679;23;19940;-89
2022/01/11 08:13:13;;;;;;;;;;;-1.20;99.90;;;;;;6205022;23;19919;-94
2022/01/11 08:15:44;;;;;;;;;;;-1.30;99.90;;;;;;6188959;23;20243;-93
2022/01/11 08:25:29;;;;;;;;;;;-1.30;99.90;;;;;;6096532;23;20387;-91
2022/01/11 08:34:31;;;;;;;;;;;-1.30;99.90;;;;;;6042131;23;21301;-93
2022/01/11 08:46:28;;;;;;;;;;;-1.30;99.90;;;;;;5997693;23;19944;-93
2022/01/11 08:49:09;;;;;;;;;;;-1.30;99.90;;;;;;6048452;23;19929;-94
2022/01/11 09:01:18;;;;;;;;;;;-1.30;99.90;;;;;;6107322;23;19924;-91
2022/01/11 09:04:26;;;;;;;;;;;;;;;;;;;;;
2022/01/11 09:06:58;;;;;;;;;;;-1.20;99.90;;;;;;6104516;23;19912;-91
2022/01/11 09:25:38;;;;;;;;;;;;;;;;;;;;;
2022/01/11 10:40:10;;;;;;;;;;;-0.70;99.90;;;;;;6117139;23;19918;-88
2022/01/11 10:42:56;;;;;;;;;;;-0.70;99.90;;;;;;6059043;23;20254;-92
2022/01/11 10:58:23;;;;;;;;;;;;;;;;;;;;;
2022/01/11 11:01:08;;;;;;;;;;;-0.80;99.90;;;;;;5926099;24;19920;-95
2022/01/11 11:03:42;;;;;;;;;;;-0.80;99.90;;;;;;5943722;24;19982;-93
2022/01/11 11:28:25;;;;;;;;;;;;;;;;;;;;;
2022/01/11 11:34:49;;;;;;;;;;;-0.50;99.90;;;;;;5938209;23;20095;-91
2022/01/11 11:37:48;;;;;;;;;;;-0.50;99.90;;;;;;6006123;23;19913;-91
2022/01/11 11:44:11;;;;;;;;;;;-0.40;99.90;;;;;;6017421;23;19913;-91
2022/01/11 11:56:46;;;;;;;;;;;-0.50;99.90;;;;;;5919214;23;20084;-89
2022/01/11 11:59:30;;;;;;;;;;;-0.50;99.90;;;;;;5895518;23;24219;-89
2022/01/11 12:01:58;;;;;;;;;;;-0.50;99.90;;;;;;5953311;24;19915;-89
2022/01/11 12:04:26;;;;;;;;;;;-0.40;99.90;;;;;;5953747;23;19929;-89
2022/01/11 12:10:31;;;;;;;;;;;-0.40;99.90;;;;;;6045995;23;19910;-89
2022/01/11 12:13:09;;;;;;;;;;;-0.50;99.90;;;;;;6062563;23;19917;-90
2022/01/11 12:18:45;;;;;;;;;;;-0.50;99.90;;;;;;5983016;23;19954;-91
2022/01/11 12:21:55;;;;;;;;;;;-0.40;99.90;;;;;;6085559;23;20296;-90
2022/01/11 12:31:18;;;;;;;;;;;;;;;;;;;;;
2022/01/11 12:34:05;;;;;;;;;;;;;;;;;;;;;
2022/01/11 12:36:52;;;;;;;;;;;-0.10;99.90;;;;;;6061862;23;20728;-92
2022/01/11 12:40:05;;;;;;;;;;;-0.10;99.90;;;;;;6046535;23;19930;-90
2022/01/11 12:54:51;;;;;;;;;;;-0.30;99.90;;;;;;6019954;23;20074;-91
2022/01/11 13:04:02;;;;;;;;;;;;;;;;;;;;;
2022/01/11 13:13:02;;;;;;;;;;;0.30;99.90;;;;;;5810528;24;19926;-92
2022/01/11 13:19:09;;;;;;;;;;;0.30;99.90;;;;;;5908049;24;20484;-91
2022/01/11 13:21:51;;;;;;;;;;;0.20;99.90;;;;;;5856503;24;19950;-90
2022/01/11 13:24:49;;;;;;;;;;;0.10;99.90;;;;;;5845673;24;19911;-91
2022/01/11 13:30:58;;;;;;;;;;;0.10;99.90;;;;;;5810112;24;20225;-89
2022/01/11 14:24:26;;;;;;;;;;;;;;;;;;;;;
2022/01/11 14:30:40;;;;;;;;;;;-0.50;99.90;;;;;;6047264;23;20336;-91
2022/01/11 14:36:21;;;;;;;;;;;-0.50;99.90;;;;;;6029942;23;20516;-89
2022/01/11 14:38:54;;;;;;;;;;;-0.60;99.90;;;;;;6055091;23;19918;-91
2022/01/11 14:41:22;;;;;;;;;;;-0.60;99.90;;;;;;6082006;23;19909;-91
2022/01/11 14:43:56;;;;;;;;;;;-0.60;99.90;;;;;;6058055;23;20435;-90
2022/01/11 14:46:22;;;;;;;;;;;-0.60;99.90;;;;;;6082005;23;19973;-91
2022/01/11 14:48:48;;;;;;;;;;;-0.70;99.90;;;;;;6046272;23;19929;-90
2022/01/11 14:51:18;;;;;;;;;;;-0.80;99.90;;;;;;6082363;23;19964;-90
2022/01/11 14:53:45;;;;;;;;;;;-0.90;99.90;;;;;;6058420;23;20682;-89
2022/01/11 14:56:29;;;;;;;;;;;-0.90;99.90;;;;;;6081874;23;19976;-91
2022/01/11 14:58:58;;;;;;;;;;;-0.90;99.90;;;;;;6065103;23;19909;-91
2022/01/11 15:01:30;;;;;;;;;;;-0.90;99.90;;;;;;6052892;23;19918;-92
2022/01/11 15:04:09;;;;;;;;;;;-1.00;99.90;;;;;;6080859;23;20066;-92
2022/01/11 15:06:41;;;;;;;;;;;-1.10;99.90;;;;;;6167204;23;19919;-91
2022/01/11 15:09:15;;;;;;;;;;;-1.10;99.90;;;;;;6185581;23;20378;-90
2022/01/11 15:11:42;;;;;;;;;;;-1.10;99.90;;;;;;6201508;23;20348;-91
2022/01/11 15:14:15;;;;;;;;;;;-1.00;99.90;;;;;;6181598;23;19942;-91
2022/01/11 15:16:50;;;;;;;;;;;-1.10;99.90;;;;;;6188864;23;20559;-91
2022/01/11 15:19:17;;;;;;;;;;;-1.10;99.90;;;;;;6225502;23;19931;-89
2022/01/11 15:21:43;;;;;;;;;;;-1.10;99.90;;;;;;6200288;23;20332;-91
2022/01/11 15:24:09;;;;;;;;;;;-1.10;99.90;;;;;;6202031;23;19908;-92
2022/01/11 15:26:36;;;;;;;;;;;-1.20;99.90;;;;;;6202331;23;19912;-84
2022/01/11 15:29:06;;;;;;;;;;;-1.20;99.90;;;;;;6202376;23;19935;-84
2022/01/11 15:31:32;;;;;;;;;;;-1.30;99.90;;;;;;6202515;23;19991;-84
2022/01/11 15:33:57;;;;;;;;;;;-1.20;99.90;;;;;;6201356;23;19987;-90
2022/01/11 15:36:23;;;;;;;;;;;-1.20;99.90;;;;;;6200327;23;19912;-90
2022/01/11 15:38:49;;;;;;;;;;;-1.30;99.90;;;;;;6202157;23;20217;-90
2022/01/11 15:41:16;;;;;;;;;;;-1.30;99.90;;;;;;6199112;23;19990;-91
2022/01/11 15:43:41;;;;;;;;;;;-1.40;99.90;;;;;;6198856;23;19919;-91
2022/01/11 15:46:07;;;;;;;;;;;-1.40;99.90;;;;;;6199869;23;19916;-92
2022/01/11 15:48:35;;;;;;;;;;;-1.40;99.90;;;;;;6202060;23;19918;-89
2022/01/11 15:51:04;;;;;;;;;;;-1.40;99.90;;;;;;6198487;23;19912;-89
2022/01/11 15:53:30;;;;;;;;;;;-1.40;99.90;;;;;;6200883;23;19939;-90
2022/01/11 15:55:56;;;;;;;;;;;-1.40;99.90;;;;;;6199414;23;19912;-90
2022/01/11 15:58:22;;;;;;;;;;;-1.40;99.90;;;;;;6202748;23;20006;-90
2022/01/11 16:00:47;;;;;;;;;;;-1.40;99.90;;;;;;6199420;23;20401;-89
2022/01/11 16:03:13;;;;;;;;;;;-1.40;99.90;;;;;;6203061;23;19998;-89
2022/01/11 16:05:39;;;;;;;;;;;-1.50;99.90;;;;;;6199242;23;19983;-89
2022/01/11 16:08:08;;;;;;;;;;;-1.40;99.90;;;;;;6200703;23;19939;-90
2022/01/11 16:10:35;;;;;;;;;;;-1.40;99.90;;;;;;6200429;23;20399;-89
2022/01/11 16:13:01;;;;;;;;;;;-1.50;99.90;;;;;;6201786;23;19916;-89
2022/01/11 16:15:27;;;;;;;;;;;-1.40;99.90;;;;;;6201352;23;19919;-89
2022/01/11 16:17:52;;;;;;;;;;;-1.40;99.90;;;;;;6200131;23;20024;-88
2022/01/11 16:20:18;;;;;;;;;;;-1.30;99.90;;;;;;6201964;23;19912;-88
2022/01/11 16:22:43;;;;;;;;;;;-1.40;99.90;;;;;;6200706;23;19919;-88
2022/01/11 16:25:11;;;;;;;;;;;-1.50;99.90;;;;;;6200546;23;19970;-88
2022/01/11 16:27:36;;;;;;;;;;;-1.60;99.90;;;;;;6162083;23;19938;-89
2022/01/11 16:30:15;;;;;;;;;;;-1.60;99.90;;;;;;6201599;23;20367;-88
2022/01/11 16:32:40;;;;;;;;;;;-1.70;99.90;;;;;;6200337;23;20384;-89
2022/01/11 16:35:06;;;;;;;;;;;-1.70;99.90;;;;;;6200314;23;19912;-88
2022/01/11 16:37:31;;;;;;;;;;;-1.70;99.90;;;;;;6197173;23;20310;-89
2022/01/11 16:40:07;;;;;;;;;;;-1.80;99.90;;;;;;6201035;23;19918;-89
2022/01/11 16:42:39;;;;;;;;;;;-1.80;99.90;;;;;;6200046;23;20622;-88
2022/01/11 16:45:08;;;;;;;;;;;-1.80;99.90;;;;;;6201869;23;20315;-88
2022/01/11 16:47:34;;;;;;;;;;;-1.80;99.90;;;;;;6201123;23;19982;-89
2022/01/11 16:50:01;;;;;;;;;;;-1.80;99.90;;;;;;6202102;23;19908;-88
2022/01/11 16:52:26;;;;;;;;;;;-1.80;99.90;;;;;;6200077;23;20421;-88
2022/01/11 16:54:52;;;;;;;;;;;-1.80;99.90;;;;;;6186201;23;19915;-88
2022/01/11 16:57:20;;;;;;;;;;;-1.80;99.90;;;;;;6198885;23;20355;-88
2022/01/11 16:59:45;;;;;;;;;;;-1.80;99.90;;;;;;6200953;23;19908;-88
2022/01/11 17:02:11;;;;;;;;;;;-1.80;99.90;;;;;;6202636;23;20355;-88
2022/01/11 17:04:37;;;;;;;;;;;-1.80;99.90;;;;;;6203524;23;19915;-88
2022/01/11 17:07:02;;;;;;;;;;;-1.80;99.90;;;;;;6200920;23;19979;-88
2022/01/11 17:09:30;;;;;;;;;;;-1.80;99.90;;;;;;6203374;23;20244;-88
2022/01/11 17:12:00;;;;;;;;;;;-1.70;99.90;;;;;;6199300;23;19931;-88
2022/01/11 17:14:26;;;;;;;;;;;-1.80;99.90;;;;;;6203703;23;19999;-88
2022/01/11 17:16:52;;;;;;;;;;;-1.80;99.90;;;;;;6201006;23;19911;-89
2022/01/11 17:19:25;;;;;;;;;;;-1.70;99.90;;;;;;6201906;23;19924;-91
2022/01/11 17:22:11;;;;;;;;;;;-1.80;99.90;;;;;;6152173;23;19912;-89
2022/01/11 17:24:39;;;;;;;;;;;-1.80;99.90;;;;;;6171120;23;19986;-88
2022/01/11 17:27:07;;;;;;;;;;;-1.90;99.90;;;;;;6175103;23;20334;-88
2022/01/11 17:29:43;;;;;;;;;;;-1.90;99.90;;;;;;6175930;23;20320;-89
2022/01/11 17:32:11;;;;;;;;;;;-1.90;99.90;;;;;;6179492;23;19916;-89
2022/01/11 17:34:51;;;;;;;;;;;-1.90;99.90;;;;;;6190500;22;19912;-91
2022/01/11 17:37:28;;;;;;;;;;;-1.90;99.90;;;;;;6186212;23;19912;-88
2022/01/11 17:40:01;;;;;;;;;;;-1.90;99.90;;;;;;6201040;23;19961;-88
2022/01/11 17:42:29;;;;;;;;;;;-1.90;99.90;;;;;;6094287;23;20408;-89
2022/01/11 17:45:23;;;;;;;;;;;-1.80;99.90;;;;;;6165754;23;20375;-88
2022/01/11 17:48:16;;;;;;;;;;;-1.90;99.90;;;;;;6189555;23;19914;-88
2022/01/11 17:50:50;;;;;;;;;;;-1.80;99.90;;;;;;6127267;23;20249;-88
2022/01/11 17:53:31;;;;;;;;;;;;;;;;;;;;;
2022/01/11 17:59:12;;;;;;;;;;;-1.80;99.90;;;;;;6183506;23;19908;-90
2022/01/11 18:01:58;;;;;;;;;;;;;;;;;;;;;
2022/01/11 18:07:57;;;;;;;;;;;-1.90;99.90;;;;;;6174618;23;20303;-90
2022/01/11 18:10:28;;;;;;;;;;;-1.90;99.90;;;;;;6085811;23;19991;-91
2022/01/11 18:13:14;;;;;;;;;;;-1.80;99.90;;;;;;6126486;23;19920;-91
2022/01/11 18:15:50;;;;;;;;;;;-1.80;99.90;;;;;;6170913;23;19934;-89
2022/01/11 18:18:28;;;;;;;;;;;-1.80;99.90;;;;;;6188909;23;20323;-89
2022/01/11 18:21:02;;;;;;;;;;;-1.90;99.90;;;;;;6171541;22;19919;-89
2022/01/11 18:23:34;;;;;;;;;;;-1.80;99.90;;;;;;6135752;23;19938;-88
2022/01/11 18:25:59;;;;;;;;;;;-1.80;99.90;;;;;;6148778;23;19908;-91
2022/01/11 18:28:25;;;;;;;;;;;-1.80;99.90;;;;;;6165246;23;20375;-91
2022/01/11 18:30:51;;;;;;;;;;;-1.80;99.90;;;;;;6213120;23;19986;-91
2022/01/11 18:33:24;;;;;;;;;;;-1.80;99.90;;;;;;6176894;23;19922;-88
2022/01/11 18:35:49;;;;;;;;;;;-1.70;99.90;;;;;;6103459;23;19912;-90
2022/01/11 18:38:52;;;;;;;;;;;-1.70;99.90;;;;;;6195854;23;19912;-91
2022/01/11 19:03:51;;;;;;;;;;;-1.60;99.90;;;;;;5832601;24;19950;-91
2022/01/11 19:06:50;;;;;;;;;;;-1.70;99.90;;;;;;5673739;24;3993207;-90
2022/01/11 19:09:41;;;;;;;;;;;-1.70;99.90;;;;;;5824636;24;20000;-89
2022/01/11 19:12:09;;;;;;;;;;;-1.70;99.90;;;;;;5853223;24;19920;-89
2022/01/11 19:25:02;;;;;;;;;;;-1.50;99.90;;;;;;5692951;25;20035;-90
2022/01/11 19:27:44;;;;;;;;;;;-1.50;99.90;;;;;;5686592;24;19925;-92
2022/01/11 19:30:10;;;;;;;;;;;-1.60;99.90;;;;;;5661531;25;19922;-89
2022/01/11 19:32:36;;;;;;;;;;;-1.50;99.90;;;;;;5693738;24;19929;-90
2022/01/11 19:35:05;;;;;;;;;;;-1.50;99.90;;;;;;5756586;24;19948;-90
2022/01/11 19:40:44;;;;;;;;;;;-1.50;99.90;;;;;;5845044;24;19921;-92
2022/01/11 19:43:10;;;;;;;;;;;-1.50;99.90;;;;;;5863082;24;20773;-89
2022/01/11 19:45:35;;;;;;;;;;;-1.50;99.90;;;;;;5870429;24;19974;-90
2022/01/11 19:48:35;;;;;;;;;;;-1.50;99.90;;;;;;5868373;24;20006;-91
2022/01/11 19:58:03;;;;;;;;;;;-1.60;99.90;;;;;;5765265;24;19924;-92
2022/01/11 20:01:03;;;;;;;;;;;-1.50;99.90;;;;;;5762757;24;20927;-91
2022/01/11 20:04:14;;;;;;;;;;;-1.50;99.90;;;;;;5762975;24;20008;-88
2022/01/11 20:06:45;;;;;;;;;;;-1.50;99.90;;;;;;5922221;24;19915;-90
2022/01/11 22:31:07;;;;;;;;;;;-1.30;99.90;;;;;;6149089;23;19909;-88
2022/01/11 22:41:25;;;;;;;;;;;-1.40;99.90;;;;;;6141094;22;19920;-89
2022/01/11 22:43:53;;;;;;;;;;;-1.40;99.90;;;;;;6153138;23;19896;-93
2022/01/11 22:46:19;;;;;;;;;;;-1.40;99.90;;;;;;6177931;23;19934;-88
2022/01/11 22:48:52;;;;;;;;;;;-1.40;99.90;;;;;;6206152;23;19912;-89
2022/01/11 22:51:21;;;;;;;;;;;-1.40;99.90;;;;;;6187011;23;19947;-90
2022/01/11 22:53:52;;;;;;;;;;;-1.40;99.90;;;;;;6197925;23;19951;-87
2022/01/11 22:56:28;;;;;;;;;;;-1.40;99.90;;;;;;6184953;23;19923;-88
2022/01/11 22:59:06;;;;;;;;;;;-1.40;99.90;;;;;;6120667;23;19925;-88
